sensor_id;sensor_type;location;lat;lon;timestamp;P1;durP1;ratioP1;P2;durP2;ratioP2
74401;SDS011;62837;51.082;13.744;2022-10-22T00:01:14;21.00;;;10.90;;
74401;SDS011;62837;51.082;13.744;2022-10-22T00:03:47;19.10;;;11.50;;
74401;SDS011;62837;51.082;13.744;2022-10-22T00:06:18;19.80;;;11.50;;
74401;SDS011;62837;51.082;13.744;2022-10-22T00:08:48;21.20;;;12.60;;
74401;SDS011;62837;51.082;13.744;2022-10-22T00:11:19;20.80;;;12.00;;
74401;SDS011;62837;51.082;13.744;2022-10-22T00:13:50;18.90;;;10.10;;
74401;SDS011;62837;51.082;13.744;2022-10-22T00:16:21;21.60;;;11.00;;
74401;SDS011;62837;51.082;13.744;2022-10-22T00:18:52;17.70;;;10.20;;
74401;SDS011;62837;51.082;13.744;2022-10-22T00:21:23;20.90;;;11.30;;
74401;SDS011;62837;51.082;13.744;2022-10-22T00:26:24;19.00;;;11.00;;
74401;SDS011;62837;51.082;13.744;2022-10-22T00:28:55;16.00;;;9.60;;
74401;SDS011;62837;51.082;13.744;2022-10-22T00:31:26;19.90;;;11.10;;
74401;SDS011;62837;51.082;13.744;2022-10-22T00:33:57;20.80;;;10.90;;
74401;SDS011;62837;51.082;13.744;2022-10-22T00:36:28;25.50;;;13.80;;
74401;SDS011;62837;51.082;13.744;2022-10-22T00:38:58;21.00;;;11.20;;
74401;SDS011;62837;51.082;13.744;2022-10-22T00:41:29;22.80;;;12.70;;
74401;SDS011;62837;51.082;13.744;2022-10-22T00:44:00;23.90;;;14.10;;
74401;SDS011;62837;51.082;13.744;2022-10-22T00:46:34;19.90;;;11.20;;
74401;SDS011;62837;51.082;13.744;2022-10-22T00:49:04;24.60;;;13.20;;
74401;SDS011;62837;51.082;13.744;2022-10-22T00:51:35;18.20;;;10.50;;
74401;SDS011;62837;51.082;13.744;2022-10-22T00:54:06;25.00;;;13.30;;
74401;SDS011;62837;51.082;13.744;2022-10-22T00:56:38;20.60;;;11.80;;
74401;SDS011;62837;51.082;13.744;2022-10-22T00:59:09;20.70;;;12.20;;
74401;SDS011;62837;51.082;13.744;2022-10-22T01:01:43;27.30;;;13.90;;
74401;SDS011;62837;51.082;13.744;2022-10-22T01:04:14;23.20;;;13.90;;
74401;SDS011;62837;51.082;13.744;2022-10-22T01:06:46;20.60;;;12.60;;
74401;SDS011;62837;51.082;13.744;2022-10-22T01:09:19;23.00;;;13.00;;
74401;SDS011;62837;51.082;13.744;2022-10-22T01:12:00;23.40;;;12.50;;
74401;SDS011;62837;51.082;13.744;2022-10-22T01:14:39;25.00;;;13.70;;
74401;SDS011;62837;51.082;13.744;2022-10-22T01:17:20;20.40;;;11.90;;
74401;SDS011;62837;51.082;13.744;2022-10-22T01:20:02;27.40;;;14.90;;
74401;SDS011;62837;51.082;13.744;2022-10-22T01:22:44;24.50;;;12.70;;
74401;SDS011;62837;51.082;13.744;2022-10-22T01:25:26;24.40;;;13.10;;
74401;SDS011;62837;51.082;13.744;2022-10-22T01:28:06;21.60;;;12.40;;
74401;SDS011;62837;51.082;13.744;2022-10-22T01:30:47;22.40;;;12.40;;
74401;SDS011;62837;51.082;13.744;2022-10-22T01:33:22;20.30;;;12.50;;
74401;SDS011;62837;51.082;13.744;2022-10-22T01:35:55;25.00;;;14.40;;
74401;SDS011;62837;51.082;13.744;2022-10-22T01:38:27;25.90;;;13.60;;
74401;SDS011;62837;51.082;13.744;2022-10-22T01:40:59;27.80;;;16.20;;
74401;SDS011;62837;51.082;13.744;2022-10-22T01:43:30;25.00;;;13.30;;
74401;SDS011;62837;51.082;13.744;2022-10-22T01:46:02;23.60;;;13.40;;
74401;SDS011;62837;51.082;13.744;2022-10-22T01:48:38;25.50;;;13.40;;
74401;SDS011;62837;51.082;13.744;2022-10-22T01:51:24;22.70;;;12.80;;
74401;SDS011;62837;51.082;13.744;2022-10-22T01:54:08;26.10;;;13.80;;
74401;SDS011;62837;51.082;13.744;2022-10-22T01:56:52;25.20;;;13.90;;
74401;SDS011;62837;51.082;13.744;2022-10-22T01:59:31;24.80;;;13.30;;
74401;SDS011;62837;51.082;13.744;2022-10-22T02:02:11;22.20;;;12.50;;
74401;SDS011;62837;51.082;13.744;2022-10-22T02:04:54;25.60;;;14.20;;
74401;SDS011;62837;51.082;13.744;2022-10-22T02:07:29;21.00;;;12.10;;
74401;SDS011;62837;51.082;13.744;2022-10-22T02:10:04;24.90;;;14.20;;
74401;SDS011;62837;51.082;13.744;2022-10-22T02:12:37;32.10;;;16.90;;
74401;SDS011;62837;51.082;13.744;2022-10-22T02:15:10;27.10;;;15.00;;
74401;SDS011;62837;51.082;13.744;2022-10-22T02:17:43;22.00;;;13.50;;
74401;SDS011;62837;51.082;13.744;2022-10-22T02:20:16;22.40;;;13.00;;
74401;SDS011;62837;51.082;13.744;2022-10-22T02:22:50;27.70;;;14.30;;
74401;SDS011;62837;51.082;13.744;2022-10-22T02:25:22;25.50;;;13.20;;
74401;SDS011;62837;51.082;13.744;2022-10-22T02:27:58;27.40;;;15.80;;
74401;SDS011;62837;51.082;13.744;2022-10-22T02:30:32;28.10;;;13.90;;
74401;SDS011;62837;51.082;13.744;2022-10-22T02:33:07;25.30;;;12.90;;
74401;SDS011;62837;51.082;13.744;2022-10-22T02:35:40;24.80;;;13.30;;
74401;SDS011;62837;51.082;13.744;2022-10-22T02:38:12;22.20;;;13.10;;
74401;SDS011;62837;51.082;13.744;2022-10-22T02:40:44;25.10;;;13.60;;
74401;SDS011;62837;51.082;13.744;2022-10-22T02:43:16;23.40;;;13.40;;
74401;SDS011;62837;51.082;13.744;2022-10-22T02:45:47;23.70;;;13.40;;
74401;SDS011;62837;51.082;13.744;2022-10-22T02:48:18;21.20;;;12.20;;
74401;SDS011;62837;51.082;13.744;2022-10-22T02:50:48;21.20;;;12.50;;
74401;SDS011;62837;51.082;13.744;2022-10-22T02:53:19;20.80;;;12.20;;
74401;SDS011;62837;51.082;13.744;2022-10-22T02:55:50;19.30;;;10.10;;
74401;SDS011;62837;51.082;13.744;2022-10-22T02:58:21;24.40;;;13.30;;
74401;SDS011;62837;51.082;13.744;2022-10-22T03:00:51;23.60;;;12.60;;
74401;SDS011;62837;51.082;13.744;2022-10-22T03:03:23;21.70;;;12.70;;
74401;SDS011;62837;51.082;13.744;2022-10-22T03:05:53;22.10;;;12.70;;
74401;SDS011;62837;51.082;13.744;2022-10-22T03:08:24;21.80;;;12.30;;
74401;SDS011;62837;51.082;13.744;2022-10-22T03:10:55;22.70;;;12.60;;
74401;SDS011;62837;51.082;13.744;2022-10-22T03:13:26;22.10;;;11.50;;
74401;SDS011;62837;51.082;13.744;2022-10-22T03:15:56;25.70;;;13.30;;
74401;SDS011;62837;51.082;13.744;2022-10-22T03:18:27;23.40;;;13.60;;
74401;SDS011;62837;51.082;13.744;2022-10-22T03:21:00;20.90;;;12.50;;
74401;SDS011;62837;51.082;13.744;2022-10-22T03:23:37;17.50;;;9.70;;
74401;SDS011;62837;51.082;13.744;2022-10-22T03:26:10;21.20;;;12.80;;
74401;SDS011;62837;51.082;13.744;2022-10-22T03:28:42;24.50;;;13.40;;
74401;SDS011;62837;51.082;13.744;2022-10-22T03:31:15;30.20;;;14.60;;
74401;SDS011;62837;51.082;13.744;2022-10-22T03:33:46;25.10;;;13.00;;
74401;SDS011;62837;51.082;13.744;2022-10-22T03:36:16;21.90;;;13.70;;
74401;SDS011;62837;51.082;13.744;2022-10-22T03:38:47;23.90;;;11.60;;
74401;SDS011;62837;51.082;13.744;2022-10-22T03:41:18;22.70;;;12.60;;
74401;SDS011;62837;51.082;13.744;2022-10-22T03:43:49;26.60;;;13.90;;
74401;SDS011;62837;51.082;13.744;2022-10-22T03:46:20;21.70;;;12.20;;
74401;SDS011;62837;51.082;13.744;2022-10-22T03:48:51;20.50;;;12.40;;
74401;SDS011;62837;51.082;13.744;2022-10-22T03:51:22;12.40;;;7.00;;
74401;SDS011;62837;51.082;13.744;2022-10-22T03:53:54;25.50;;;13.30;;
74401;SDS011;62837;51.082;13.744;2022-10-22T03:56:24;21.90;;;12.30;;
74401;SDS011;62837;51.082;13.744;2022-10-22T03:58:56;22.10;;;13.20;;
74401;SDS011;62837;51.082;13.744;2022-10-22T04:01:29;24.70;;;12.70;;
74401;SDS011;62837;51.082;13.744;2022-10-22T04:04:00;27.00;;;13.50;;
74401;SDS011;62837;51.082;13.744;2022-10-22T04:06:31;28.80;;;14.10;;
74401;SDS011;62837;51.082;13.744;2022-10-22T04:09:02;26.70;;;13.50;;
74401;SDS011;62837;51.082;13.744;2022-10-22T04:11:32;25.00;;;14.40;;
74401;SDS011;62837;51.082;13.744;2022-10-22T04:14:03;25.00;;;14.20;;
74401;SDS011;62837;51.082;13.744;2022-10-22T04:16:34;25.70;;;13.10;;
74401;SDS011;62837;51.082;13.744;2022-10-22T04:19:06;24.00;;;13.30;;
74401;SDS011;62837;51.082;13.744;2022-10-22T04:21:38;20.70;;;11.40;;
74401;SDS011;62837;51.082;13.744;2022-10-22T04:24:09;23.40;;;13.30;;
74401;SDS011;62837;51.082;13.744;2022-10-22T04:26:39;28.10;;;16.50;;
74401;SDS011;62837;51.082;13.744;2022-10-22T04:29:10;27.20;;;14.00;;
74401;SDS011;62837;51.082;13.744;2022-10-22T04:31:43;25.90;;;14.00;;
74401;SDS011;62837;51.082;13.744;2022-10-22T04:34:14;24.90;;;13.60;;
74401;SDS011;62837;51.082;13.744;2022-10-22T04:36:44;24.90;;;14.80;;
74401;SDS011;62837;51.082;13.744;2022-10-22T04:39:15;26.70;;;14.40;;
74401;SDS011;62837;51.082;13.744;2022-10-22T04:41:46;17.90;;;9.50;;
74401;SDS011;62837;51.082;13.744;2022-10-22T04:44:16;24.10;;;12.60;;
74401;SDS011;62837;51.082;13.744;2022-10-22T04:46:47;23.40;;;13.70;;
74401;SDS011;62837;51.082;13.744;2022-10-22T04:49:18;24.00;;;12.90;;
74401;SDS011;62837;51.082;13.744;2022-10-22T04:51:50;21.80;;;12.40;;
74401;SDS011;62837;51.082;13.744;2022-10-22T04:54:21;22.50;;;12.90;;
74401;SDS011;62837;51.082;13.744;2022-10-22T04:56:58;23.20;;;13.30;;
74401;SDS011;62837;51.082;13.744;2022-10-22T04:59:29;33.80;;;16.80;;
74401;SDS011;62837;51.082;13.744;2022-10-22T05:02:00;22.80;;;13.30;;
74401;SDS011;62837;51.082;13.744;2022-10-22T05:04:31;22.20;;;12.80;;
74401;SDS011;62837;51.082;13.744;2022-10-22T05:07:01;23.80;;;12.30;;
74401;SDS011;62837;51.082;13.744;2022-10-22T05:09:32;27.30;;;14.30;;
74401;SDS011;62837;51.082;13.744;2022-10-22T05:12:03;28.60;;;14.70;;
74401;SDS011;62837;51.082;13.744;2022-10-22T05:14:34;28.10;;;14.20;;
74401;SDS011;62837;51.082;13.744;2022-10-22T05:17:11;22.20;;;12.20;;
74401;SDS011;62837;51.082;13.744;2022-10-22T05:19:42;22.80;;;12.00;;
74401;SDS011;62837;51.082;13.744;2022-10-22T05:22:13;25.60;;;12.90;;
74401;SDS011;62837;51.082;13.744;2022-10-22T05:24:43;22.00;;;13.10;;
74401;SDS011;62837;51.082;13.744;2022-10-22T05:27:15;22.90;;;13.10;;
74401;SDS011;62837;51.082;13.744;2022-10-22T05:29:51;22.80;;;11.10;;
74401;SDS011;62837;51.082;13.744;2022-10-22T05:32:22;28.20;;;13.30;;
74401;SDS011;62837;51.082;13.744;2022-10-22T05:34:53;22.40;;;13.80;;
74401;SDS011;62837;51.082;13.744;2022-10-22T05:37:23;21.80;;;12.20;;
74401;SDS011;62837;51.082;13.744;2022-10-22T05:39:54;18.50;;;10.80;;
74401;SDS011;62837;51.082;13.744;2022-10-22T05:42:45;18.50;;;9.30;;
74401;SDS011;62837;51.082;13.744;2022-10-22T05:45:16;38.70;;;10.90;;
74401;SDS011;62837;51.082;13.744;2022-10-22T05:47:46;21.90;;;12.40;;
74401;SDS011;62837;51.082;13.744;2022-10-22T05:50:17;20.50;;;11.40;;
74401;SDS011;62837;51.082;13.744;2022-10-22T05:52:48;20.30;;;11.70;;
74401;SDS011;62837;51.082;13.744;2022-10-22T05:55:18;24.10;;;12.20;;
74401;SDS011;62837;51.082;13.744;2022-10-22T05:57:49;21.10;;;12.40;;
74401;SDS011;62837;51.082;13.744;2022-10-22T06:00:20;25.60;;;15.10;;
74401;SDS011;62837;51.082;13.744;2022-10-22T06:02:51;22.10;;;13.50;;
74401;SDS011;62837;51.082;13.744;2022-10-22T06:05:22;23.80;;;14.30;;
74401;SDS011;62837;51.082;13.744;2022-10-22T06:07:53;19.30;;;11.60;;
74401;SDS011;62837;51.082;13.744;2022-10-22T06:10:25;22.50;;;12.40;;
74401;SDS011;62837;51.082;13.744;2022-10-22T06:12:56;20.40;;;11.50;;
74401;SDS011;62837;51.082;13.744;2022-10-22T06:15:28;19.90;;;11.60;;
74401;SDS011;62837;51.082;13.744;2022-10-22T06:17:59;22.60;;;12.00;;
74401;SDS011;62837;51.082;13.744;2022-10-22T06:20:29;26.00;;;12.90;;
74401;SDS011;62837;51.082;13.744;2022-10-22T06:23:02;20.60;;;12.40;;
74401;SDS011;62837;51.082;13.744;2022-10-22T06:25:32;24.40;;;13.10;;
74401;SDS011;62837;51.082;13.744;2022-10-22T06:28:03;24.20;;;12.70;;
74401;SDS011;62837;51.082;13.744;2022-10-22T06:30:35;21.80;;;12.50;;
74401;SDS011;62837;51.082;13.744;2022-10-22T06:33:12;22.60;;;13.70;;
74401;SDS011;62837;51.082;13.744;2022-10-22T06:35:43;22.30;;;11.40;;
74401;SDS011;62837;51.082;13.744;2022-10-22T06:38:15;20.40;;;11.60;;
74401;SDS011;62837;51.082;13.744;2022-10-22T06:40:46;19.30;;;10.70;;
74401;SDS011;62837;51.082;13.744;2022-10-22T06:43:16;17.90;;;11.70;;
74401;SDS011;62837;51.082;13.744;2022-10-22T06:45:47;17.50;;;10.20;;
74401;SDS011;62837;51.082;13.744;2022-10-22T06:48:18;20.50;;;10.00;;
74401;SDS011;62837;51.082;13.744;2022-10-22T06:50:49;19.70;;;11.80;;
74401;SDS011;62837;51.082;13.744;2022-10-22T06:53:20;20.20;;;10.80;;
74401;SDS011;62837;51.082;13.744;2022-10-22T06:55:50;20.80;;;11.20;;
74401;SDS011;62837;51.082;13.744;2022-10-22T06:58:21;13.60;;;8.70;;
74401;SDS011;62837;51.082;13.744;2022-10-22T07:01:00;19.50;;;11.30;;
74401;SDS011;62837;51.082;13.744;2022-10-22T07:03:32;21.10;;;11.20;;
74401;SDS011;62837;51.082;13.744;2022-10-22T07:06:03;22.00;;;12.60;;
74401;SDS011;62837;51.082;13.744;2022-10-22T07:08:36;22.70;;;10.90;;
74401;SDS011;62837;51.082;13.744;2022-10-22T07:11:08;18.20;;;10.60;;
74401;SDS011;62837;51.082;13.744;2022-10-22T07:13:40;19.50;;;13.10;;
74401;SDS011;62837;51.082;13.744;2022-10-22T07:16:11;17.10;;;9.80;;
74401;SDS011;62837;51.082;13.744;2022-10-22T07:18:43;20.00;;;10.60;;
74401;SDS011;62837;51.082;13.744;2022-10-22T07:21:14;15.50;;;9.40;;
74401;SDS011;62837;51.082;13.744;2022-10-22T07:23:47;17.30;;;10.30;;
74401;SDS011;62837;51.082;13.744;2022-10-22T07:26:18;21.20;;;10.70;;
74401;SDS011;62837;51.082;13.744;2022-10-22T07:28:48;27.60;;;14.30;;
74401;SDS011;62837;51.082;13.744;2022-10-22T07:31:19;30.00;;;14.30;;
74401;SDS011;62837;51.082;13.744;2022-10-22T07:33:50;21.20;;;10.90;;
74401;SDS011;62837;51.082;13.744;2022-10-22T07:36:21;20.50;;;11.30;;
74401;SDS011;62837;51.082;13.744;2022-10-22T07:38:53;22.60;;;12.70;;
74401;SDS011;62837;51.082;13.744;2022-10-22T07:41:26;21.50;;;11.90;;
74401;SDS011;62837;51.082;13.744;2022-10-22T07:43:57;22.30;;;11.10;;
74401;SDS011;62837;51.082;13.744;2022-10-22T07:46:28;20.90;;;11.40;;
74401;SDS011;62837;51.082;13.744;2022-10-22T07:48:59;20.10;;;11.20;;
74401;SDS011;62837;51.082;13.744;2022-10-22T07:51:30;21.40;;;11.30;;
74401;SDS011;62837;51.082;13.744;2022-10-22T07:54:01;26.20;;;13.60;;
74401;SDS011;62837;51.082;13.744;2022-10-22T07:56:32;35.60;;;15.80;;
74401;SDS011;62837;51.082;13.744;2022-10-22T07:59:02;40.90;;;16.90;;
74401;SDS011;62837;51.082;13.744;2022-10-22T08:01:33;28.00;;;13.40;;
74401;SDS011;62837;51.082;13.744;2022-10-22T08:04:04;23.00;;;12.50;;
74401;SDS011;62837;51.082;13.744;2022-10-22T08:06:36;25.60;;;12.80;;
74401;SDS011;62837;51.082;13.744;2022-10-22T08:09:12;21.20;;;12.20;;
74401;SDS011;62837;51.082;13.744;2022-10-22T08:11:43;24.80;;;13.60;;
74401;SDS011;62837;51.082;13.744;2022-10-22T08:14:14;18.30;;;11.20;;
74401;SDS011;62837;51.082;13.744;2022-10-22T08:16:45;25.00;;;13.60;;
74401;SDS011;62837;51.082;13.744;2022-10-22T08:19:15;22.30;;;13.00;;
74401;SDS011;62837;51.082;13.744;2022-10-22T08:21:47;19.50;;;11.10;;
74401;SDS011;62837;51.082;13.744;2022-10-22T08:24:18;24.50;;;11.60;;
74401;SDS011;62837;51.082;13.744;2022-10-22T08:26:49;21.70;;;12.80;;
74401;SDS011;62837;51.082;13.744;2022-10-22T08:29:21;17.00;;;9.60;;
74401;SDS011;62837;51.082;13.744;2022-10-22T08:31:53;17.80;;;9.60;;
74401;SDS011;62837;51.082;13.744;2022-10-22T08:34:24;21.50;;;10.50;;
74401;SDS011;62837;51.082;13.744;2022-10-22T08:36:54;23.90;;;11.80;;
74401;SDS011;62837;51.082;13.744;2022-10-22T08:39:27;19.40;;;10.30;;
74401;SDS011;62837;51.082;13.744;2022-10-22T08:42:00;19.90;;;11.60;;
74401;SDS011;62837;51.082;13.744;2022-10-22T08:44:48;21.80;;;12.60;;
74401;SDS011;62837;51.082;13.744;2022-10-22T08:47:33;21.70;;;10.50;;
74401;SDS011;62837;51.082;13.744;2022-10-22T08:50:17;18.50;;;10.90;;
74401;SDS011;62837;51.082;13.744;2022-10-22T08:52:51;11.60;;;6.80;;
74401;SDS011;62837;51.082;13.744;2022-10-22T08:55:26;18.00;;;11.20;;
74401;SDS011;62837;51.082;13.744;2022-10-22T08:58:04;19.40;;;10.30;;
74401;SDS011;62837;51.082;13.744;2022-10-22T09:00:46;16.00;;;9.70;;
74401;SDS011;62837;51.082;13.744;2022-10-22T09:03:29;20.10;;;9.70;;
74401;SDS011;62837;51.082;13.744;2022-10-22T09:06:10;19.10;;;9.10;;
74401;SDS011;62837;51.082;13.744;2022-10-22T09:08:43;16.60;;;8.70;;
74401;SDS011;62837;51.082;13.744;2022-10-22T09:13:51;15.50;;;7.90;;
74401;SDS011;62837;51.082;13.744;2022-10-22T09:16:26;12.50;;;7.50;;
74401;SDS011;62837;51.082;13.744;2022-10-22T09:19:11;16.80;;;7.80;;
74401;SDS011;62837;51.082;13.744;2022-10-22T09:21:54;12.90;;;7.70;;
74401;SDS011;62837;51.082;13.744;2022-10-22T09:24:33;13.90;;;8.10;;
74401;SDS011;62837;51.082;13.744;2022-10-22T09:27:11;12.10;;;7.20;;
74401;SDS011;62837;51.082;13.744;2022-10-22T09:29:44;12.40;;;7.10;;
74401;SDS011;62837;51.082;13.744;2022-10-22T09:32:16;10.20;;;6.20;;
74401;SDS011;62837;51.082;13.744;2022-10-22T09:34:48;10.80;;;7.20;;
74401;SDS011;62837;51.082;13.744;2022-10-22T09:37:24;17.60;;;8.90;;
74401;SDS011;62837;51.082;13.744;2022-10-22T09:39:56;13.80;;;8.50;;
74401;SDS011;62837;51.082;13.744;2022-10-22T09:42:31;19.10;;;10.80;;
74401;SDS011;62837;51.082;13.744;2022-10-22T09:45:03;18.30;;;10.00;;
74401;SDS011;62837;51.082;13.744;2022-10-22T09:47:36;13.20;;;7.10;;
74401;SDS011;62837;51.082;13.744;2022-10-22T09:50:28;13.10;;;7.00;;
74401;SDS011;62837;51.082;13.744;2022-10-22T09:53:16;17.50;;;9.50;;
74401;SDS011;62837;51.082;13.744;2022-10-22T09:55:56;13.50;;;7.00;;
74401;SDS011;62837;51.082;13.744;2022-10-22T09:58:28;15.40;;;7.80;;
74401;SDS011;62837;51.082;13.744;2022-10-22T10:01:14;16.30;;;10.40;;
74401;SDS011;62837;51.082;13.744;2022-10-22T10:06:18;11.00;;;6.50;;
74401;SDS011;62837;51.082;13.744;2022-10-22T10:08:50;16.30;;;7.80;;
74401;SDS011;62837;51.082;13.744;2022-10-22T10:11:25;13.80;;;6.70;;
74401;SDS011;62837;51.082;13.744;2022-10-22T10:14:06;10.90;;;5.60;;
74401;SDS011;62837;51.082;13.744;2022-10-22T10:16:46;9.10;;;5.50;;
74401;SDS011;62837;51.082;13.744;2022-10-22T10:19:33;9.60;;;6.80;;
74401;SDS011;62837;51.082;13.744;2022-10-22T10:22:21;10.90;;;5.70;;
74401;SDS011;62837;51.082;13.744;2022-10-22T10:25:23;9.50;;;6.70;;
74401;SDS011;62837;51.082;13.744;2022-10-22T10:28:03;10.90;;;6.30;;
74401;SDS011;62837;51.082;13.744;2022-10-22T10:30:45;10.30;;;6.40;;
74401;SDS011;62837;51.082;13.744;2022-10-22T10:33:27;11.70;;;6.70;;
74401;SDS011;62837;51.082;13.744;2022-10-22T10:36:10;11.20;;;5.70;;
74401;SDS011;62837;51.082;13.744;2022-10-22T10:38:47;9.60;;;5.50;;
74401;SDS011;62837;51.082;13.744;2022-10-22T10:41:27;8.30;;;5.20;;
74401;SDS011;62837;51.082;13.744;2022-10-22T10:47:05;14.10;;;7.30;;
74401;SDS011;62837;51.082;13.744;2022-10-22T10:49:46;7.70;;;5.00;;
74401;SDS011;62837;51.082;13.744;2022-10-22T10:52:21;7.40;;;5.00;;
74401;SDS011;62837;51.082;13.744;2022-10-22T10:55:08;8.50;;;4.90;;
74401;SDS011;62837;51.082;13.744;2022-10-22T10:57:48;7.60;;;4.50;;
74401;SDS011;62837;51.082;13.744;2022-10-22T11:00:27;6.90;;;5.10;;
74401;SDS011;62837;51.082;13.744;2022-10-22T11:03:18;6.80;;;4.10;;
74401;SDS011;62837;51.082;13.744;2022-10-22T11:06:03;6.70;;;3.40;;
74401;SDS011;62837;51.082;13.744;2022-10-22T11:08:38;5.90;;;3.40;;
74401;SDS011;62837;51.082;13.744;2022-10-22T11:11:14;8.30;;;4.00;;
74401;SDS011;62837;51.082;13.744;2022-10-22T11:13:50;6.10;;;4.30;;
74401;SDS011;62837;51.082;13.744;2022-10-22T11:16:26;7.80;;;4.70;;
74401;SDS011;62837;51.082;13.744;2022-10-22T11:19:04;7.30;;;4.90;;
74401;SDS011;62837;51.082;13.744;2022-10-22T11:21:55;7.20;;;4.40;;
74401;SDS011;62837;51.082;13.744;2022-10-22T11:24:34;7.60;;;4.50;;
74401;SDS011;62837;51.082;13.744;2022-10-22T11:27:22;10.20;;;4.70;;
74401;SDS011;62837;51.082;13.744;2022-10-22T11:29:58;8.10;;;4.60;;
74401;SDS011;62837;51.082;13.744;2022-10-22T11:32:34;6.50;;;4.50;;
74401;SDS011;62837;51.082;13.744;2022-10-22T11:35:10;8.20;;;4.20;;
74401;SDS011;62837;51.082;13.744;2022-10-22T11:37:44;6.70;;;4.20;;
74401;SDS011;62837;51.082;13.744;2022-10-22T11:40:17;8.80;;;4.40;;
74401;SDS011;62837;51.082;13.744;2022-10-22T11:42:50;11.60;;;5.80;;
74401;SDS011;62837;51.082;13.744;2022-10-22T11:45:27;8.60;;;4.90;;
74401;SDS011;62837;51.082;13.744;2022-10-22T11:48:06;7.80;;;4.90;;
74401;SDS011;62837;51.082;13.744;2022-10-22T11:50:48;7.50;;;4.00;;
74401;SDS011;62837;51.082;13.744;2022-10-22T11:53:29;8.80;;;4.00;;
74401;SDS011;62837;51.082;13.744;2022-10-22T11:56:20;7.20;;;4.10;;
74401;SDS011;62837;51.082;13.744;2022-10-22T11:58:54;7.10;;;4.40;;
74401;SDS011;62837;51.082;13.744;2022-10-22T12:01:26;8.10;;;4.60;;
74401;SDS011;62837;51.082;13.744;2022-10-22T12:04:18;8.70;;;5.60;;
74401;SDS011;62837;51.082;13.744;2022-10-22T12:06:55;9.20;;;5.50;;
74401;SDS011;62837;51.082;13.744;2022-10-22T12:09:27;7.00;;;4.60;;
74401;SDS011;62837;51.082;13.744;2022-10-22T12:12:09;9.30;;;4.60;;
74401;SDS011;62837;51.082;13.744;2022-10-22T12:14:53;8.00;;;4.80;;
74401;SDS011;62837;51.082;13.744;2022-10-22T12:17:26;8.90;;;4.40;;
74401;SDS011;62837;51.082;13.744;2022-10-22T12:20:00;9.10;;;5.50;;
74401;SDS011;62837;51.082;13.744;2022-10-22T12:22:36;9.00;;;5.30;;
74401;SDS011;62837;51.082;13.744;2022-10-22T12:25:15;8.80;;;4.90;;
74401;SDS011;62837;51.082;13.744;2022-10-22T12:27:50;15.80;;;9.30;;
74401;SDS011;62837;51.082;13.744;2022-10-22T12:30:24;8.80;;;6.10;;
74401;SDS011;62837;51.082;13.744;2022-10-22T12:32:58;6.60;;;4.40;;
74401;SDS011;62837;51.082;13.744;2022-10-22T12:35:30;7.40;;;4.30;;
74401;SDS011;62837;51.082;13.744;2022-10-22T12:38:10;7.20;;;4.20;;
74401;SDS011;62837;51.082;13.744;2022-10-22T12:40:43;6.30;;;4.70;;
74401;SDS011;62837;51.082;13.744;2022-10-22T12:43:16;7.70;;;4.10;;
74401;SDS011;62837;51.082;13.744;2022-10-22T12:45:51;5.90;;;3.30;;
74401;SDS011;62837;51.082;13.744;2022-10-22T12:48:23;6.00;;;3.70;;
74401;SDS011;62837;51.082;13.744;2022-10-22T12:50:57;6.20;;;4.30;;
74401;SDS011;62837;51.082;13.744;2022-10-22T12:53:29;5.60;;;3.60;;
74401;SDS011;62837;51.082;13.744;2022-10-22T12:56:05;5.90;;;3.70;;
74401;SDS011;62837;51.082;13.744;2022-10-22T12:58:40;6.80;;;4.00;;
74401;SDS011;62837;51.082;13.744;2022-10-22T13:01:14;4.70;;;3.30;;
74401;SDS011;62837;51.082;13.744;2022-10-22T13:03:46;4.90;;;3.20;;
74401;SDS011;62837;51.082;13.744;2022-10-22T13:08:56;4.70;;;3.10;;
74401;SDS011;62837;51.082;13.744;2022-10-22T13:11:36;5.30;;;3.40;;
74401;SDS011;62837;51.082;13.744;2022-10-22T13:14:17;5.90;;;3.00;;
74401;SDS011;62837;51.082;13.744;2022-10-22T13:17:12;2.40;;;1.10;;
74401;SDS011;62837;51.082;13.744;2022-10-22T13:19:58;1.50;;;0.60;;
74401;SDS011;62837;51.082;13.744;2022-10-22T13:22:32;1.00;;;0.40;;
74401;SDS011;62837;51.082;13.744;2022-10-22T13:25:19;3.10;;;0.70;;
74401;SDS011;62837;51.082;13.744;2022-10-22T13:27:53;2.20;;;0.70;;
74401;SDS011;62837;51.082;13.744;2022-10-22T13:30:26;1.70;;;0.50;;
74401;SDS011;62837;51.082;13.744;2022-10-22T13:32:59;2.20;;;0.50;;
74401;SDS011;62837;51.082;13.744;2022-10-22T13:35:31;1.80;;;0.80;;
74401;SDS011;62837;51.082;13.744;2022-10-22T13:38:07;4.10;;;0.90;;
74401;SDS011;62837;51.082;13.744;2022-10-22T13:40:46;2.10;;;0.40;;
74401;SDS011;62837;51.082;13.744;2022-10-22T13:43:18;2.40;;;0.50;;
74401;SDS011;62837;51.082;13.744;2022-10-22T13:45:50;1.80;;;0.60;;
74401;SDS011;62837;51.082;13.744;2022-10-22T13:48:25;0.90;;;0.50;;
74401;SDS011;62837;51.082;13.744;2022-10-22T13:50:58;2.40;;;0.80;;
74401;SDS011;62837;51.082;13.744;2022-10-22T13:53:29;2.30;;;0.50;;
74401;SDS011;62837;51.082;13.744;2022-10-22T13:56:00;1.90;;;0.40;;
74401;SDS011;62837;51.082;13.744;2022-10-22T13:58:31;1.20;;;0.30;;
74401;SDS011;62837;51.082;13.744;2022-10-22T14:01:01;2.10;;;0.60;;
74401;SDS011;62837;51.082;13.744;2022-10-22T14:03:36;4.10;;;1.60;;
74401;SDS011;62837;51.082;13.744;2022-10-22T14:06:09;1.70;;;0.80;;
74401;SDS011;62837;51.082;13.744;2022-10-22T14:08:42;1.60;;;0.30;;
74401;SDS011;62837;51.082;13.744;2022-10-22T14:11:17;2.40;;;0.70;;
74401;SDS011;62837;51.082;13.744;2022-10-22T14:13:48;1.90;;;0.50;;
74401;SDS011;62837;51.082;13.744;2022-10-22T14:16:19;1.30;;;0.60;;
74401;SDS011;62837;51.082;13.744;2022-10-22T14:18:51;5.60;;;1.00;;
74401;SDS011;62837;51.082;13.744;2022-10-22T14:21:23;2.60;;;0.60;;
74401;SDS011;62837;51.082;13.744;2022-10-22T14:23:56;1.80;;;0.60;;
74401;SDS011;62837;51.082;13.744;2022-10-22T14:26:28;1.20;;;0.60;;
74401;SDS011;62837;51.082;13.744;2022-10-22T14:29:02;1.20;;;0.90;;
74401;SDS011;62837;51.082;13.744;2022-10-22T14:31:38;1.70;;;0.40;;
74401;SDS011;62837;51.082;13.744;2022-10-22T14:34:12;1.70;;;0.70;;
74401;SDS011;62837;51.082;13.744;2022-10-22T14:36:43;1.50;;;0.70;;
74401;SDS011;62837;51.082;13.744;2022-10-22T14:39:14;1.90;;;0.50;;
74401;SDS011;62837;51.082;13.744;2022-10-22T14:41:45;1.70;;;0.70;;
74401;SDS011;62837;51.082;13.744;2022-10-22T14:44:17;9.10;;;4.60;;
74401;SDS011;62837;51.082;13.744;2022-10-22T14:46:47;7.40;;;3.50;;
74401;SDS011;62837;51.082;13.744;2022-10-22T14:49:21;6.00;;;2.20;;
74401;SDS011;62837;51.082;13.744;2022-10-22T14:51:51;1.70;;;0.90;;
74401;SDS011;62837;51.082;13.744;2022-10-22T14:54:22;2.40;;;0.90;;
74401;SDS011;62837;51.082;13.744;2022-10-22T14:56:53;4.00;;;0.60;;
74401;SDS011;62837;51.082;13.744;2022-10-22T14:59:24;1.20;;;0.50;;
74401;SDS011;62837;51.082;13.744;2022-10-22T15:01:54;4.60;;;0.40;;
74401;SDS011;62837;51.082;13.744;2022-10-22T15:04:25;1.40;;;0.40;;
74401;SDS011;62837;51.082;13.744;2022-10-22T15:06:57;2.60;;;0.70;;
74401;SDS011;62837;51.082;13.744;2022-10-22T15:09:28;1.00;;;0.50;;
74401;SDS011;62837;51.082;13.744;2022-10-22T15:11:59;2.50;;;0.80;;